createdAt,value
2018-12-11T00:01:12.133Z,2.4
2018-12-11T00:06:12.047Z,2.4
2018-12-11T00:11:12.085Z,2.4
2018-12-11T00:16:11.923Z,2.4
2018-12-11T00:21:12.015Z,2.4
2018-12-11T00:26:11.930Z,2.4
2018-12-11T00:31:12.131Z,2.4
2018-12-11T00:36:12.163Z,2.4
2018-12-11T00:41:12.076Z,2.4
2018-12-11T00:46:12.151Z,2.4
2018-12-11T00:51:11.999Z,2.4
2018-12-11T00:56:12.076Z,2.4
2018-12-11T01:01:11.933Z,2.4
2018-12-11T01:06:12.152Z,2.5
2018-12-11T01:11:12.076Z,2.5
2018-12-11T01:16:11.897Z,2.5
2018-12-11T01:21:12.152Z,2.5
2018-12-11T01:26:11.952Z,2.5
2018-12-11T01:31:12.072Z,2.4
2018-12-11T01:36:11.963Z,2.4
2018-12-11T01:41:12.188Z,2.4
2018-12-11T01:46:12.110Z,2.4
2018-12-11T01:51:12.159Z,2.4
2018-12-11T01:56:12.198Z,2.4
2018-12-11T02:01:12.108Z,2.4
2018-12-11T02:06:12.159Z,2.4
2018-12-11T02:11:12.197Z,2.4
2018-12-11T02:16:12.112Z,2.4
2018-12-11T02:21:12.339Z,2.4
2018-12-11T02:26:11.978Z,2.4
2018-12-11T02:31:12.111Z,2.4
2018-12-11T02:36:12.150Z,2.4
2018-12-11T02:41:12.148Z,2.4
2018-12-11T02:46:12.001Z,2.4
2018-12-11T02:51:11.981Z,2.5
2018-12-11T02:56:12.002Z,2.5
2018-12-11T03:01:11.989Z,2.5
2018-12-11T03:06:12.143Z,2.5
2018-12-11T03:11:12.176Z,2.5
2018-12-11T03:16:12.220Z,2.5
2018-12-11T03:21:12.150Z,2.5
2018-12-11T03:26:12.194Z,2.5
2018-12-11T03:31:12.115Z,2.5
2018-12-11T03:36:12.022Z,2.5
2018-12-11T03:41:12.156Z,2.5
2018-12-11T03:46:12.234Z,2.5
2018-12-11T03:51:12.255Z,2.5
2018-12-11T03:56:12.180Z,2.4
2018-12-11T04:01:12.218Z,2.4
2018-12-11T04:06:12.254Z,2.3
2018-12-11T04:11:12.174Z,2.3
2018-12-11T04:16:12.217Z,2.3
2018-12-11T04:21:12.024Z,2.2
2018-12-11T04:26:12.058Z,2.3
2018-12-11T04:31:12.044Z,2.2
2018-12-11T04:36:12.261Z,2.2
2018-12-11T04:41:12.050Z,2.2
2018-12-11T04:46:12.211Z,2.2
2018-12-11T04:51:12.062Z,2.1
2018-12-11T04:56:12.043Z,2.2
2018-12-11T05:01:12.207Z,2.1
2018-12-11T05:06:12.219Z,2.1
2018-12-11T05:11:12.065Z,2.1
2018-12-11T05:16:12.217Z,2.1
2018-12-11T05:21:12.269Z,2
2018-12-11T05:26:12.295Z,2
2018-12-11T05:31:12.214Z,2
2018-12-11T05:36:12.045Z,1.9
2018-12-11T05:41:12.305Z,1.9
2018-12-11T05:46:12.331Z,1.9
2018-12-11T05:51:12.978Z,1.9
2018-12-11T05:56:12.105Z,1.9
2018-12-11T06:01:12.096Z,1.9
2018-12-11T06:06:12.245Z,1.9
2018-12-11T06:11:12.301Z,2
2018-12-11T06:16:12.294Z,1.9
2018-12-11T06:21:12.328Z,1.9
2018-12-11T06:26:12.106Z,1.9
2018-12-11T06:31:12.321Z,1.9
2018-12-11T06:36:12.253Z,2
2018-12-11T06:41:12.283Z,2
2018-12-11T06:46:13.354Z,2
2018-12-11T06:51:12.127Z,2
2018-12-11T06:56:12.281Z,2
2018-12-11T07:01:12.326Z,2
2018-12-11T07:06:12.123Z,2.1
2018-12-11T07:11:12.275Z,2.1
2018-12-11T07:16:12.310Z,2.1
2018-12-11T07:21:12.133Z,2.1
2018-12-11T07:26:12.280Z,2.2
2018-12-11T07:31:12.147Z,2.2
2018-12-11T07:36:12.360Z,2.2
2018-12-11T07:41:12.277Z,2.2
2018-12-11T07:46:12.332Z,2.2
2018-12-11T07:51:12.147Z,2.3
2018-12-11T07:56:12.395Z,2.3
2018-12-11T08:01:12.315Z,2.3
2018-12-11T08:06:12.150Z,2.4
2018-12-11T08:11:12.141Z,2.4
2018-12-11T08:16:12.306Z,2.4
2018-12-11T08:21:12.362Z,2.5
2018-12-11T08:26:12.387Z,2.5
2018-12-11T08:31:12.309Z,2.5
2018-12-11T08:36:12.179Z,2.5
2018-12-11T08:41:15.205Z,2.6
2018-12-11T08:46:12.312Z,2.5
2018-12-11T08:51:12.340Z,2.5
2018-12-11T08:56:12.162Z,2.5
2018-12-11T09:01:12.214Z,2.4
2018-12-11T09:06:12.347Z,2.3
2018-12-11T09:11:12.183Z,2.4
2018-12-11T09:16:12.201Z,2.3
2018-12-11T09:21:12.205Z,2.4
2018-12-11T09:26:12.210Z,2.3
2018-12-11T09:31:12.196Z,2.3
2018-12-11T09:36:12.201Z,2.3
2018-12-11T09:41:12.402Z,2.3
2018-12-11T09:46:12.435Z,2.3
2018-12-11T09:51:17.703Z,2.3
2018-12-11T09:56:12.381Z,2.3
2018-12-11T10:01:12.205Z,2.4
2018-12-11T10:06:12.216Z,2.3
2018-12-11T10:11:12.221Z,2.3
2018-12-11T10:16:12.241Z,2.4
2018-12-11T10:21:12.469Z,2.4
2018-12-11T10:26:12.377Z,2.4
2018-12-11T10:31:12.438Z,2.4
2018-12-11T10:36:12.451Z,2.3
2018-12-11T10:41:12.240Z,2.3
2018-12-11T10:46:12.437Z,2.4
2018-12-11T10:51:12.360Z,2.4
2018-12-11T10:56:12.239Z,2.4
2018-12-11T11:01:12.409Z,2.5
2018-12-11T11:06:12.456Z,2.6
2018-12-11T11:11:12.241Z,2.7
2018-12-11T11:16:12.247Z,2.8
2018-12-11T11:21:12.263Z,2.8
2018-12-11T11:26:12.260Z,2.9
2018-12-11T11:31:12.409Z,2.9
2018-12-11T11:36:12.265Z,3
2018-12-11T11:41:12.500Z,3.1
2018-12-11T11:46:12.392Z,3.1
2018-12-11T11:51:12.381Z,3.1
2018-12-11T11:56:12.257Z,3.2
2018-12-11T12:01:12.429Z,3.2
2018-12-11T12:06:12.462Z,3.1
2018-12-11T12:11:12.479Z,3.1
2018-12-11T12:16:12.408Z,3.1
2018-12-11T12:21:12.445Z,3.1
2018-12-11T12:26:12.478Z,3.1
2018-12-11T12:31:12.532Z,3.1
2018-12-11T12:36:12.444Z,3.1
2018-12-11T12:41:12.464Z,3.1
2018-12-11T12:46:12.521Z,3.1
2018-12-11T12:51:12.442Z,3.1
2018-12-11T12:56:12.489Z,3.1
2018-12-11T13:01:12.534Z,3.1
2018-12-11T13:06:12.446Z,3.1
2018-12-11T13:11:12.309Z,3.1
2018-12-11T13:16:12.936Z,3.1
2018-12-11T13:21:12.430Z,3.1
2018-12-11T13:26:12.333Z,3.1
2018-12-11T13:31:12.535Z,3.1
2018-12-11T13:36:12.404Z,3.1
2018-12-11T13:41:12.383Z,3.1
2018-12-11T13:46:12.544Z,3.1
2018-12-11T13:51:12.453Z,3.1
2018-12-11T13:56:12.478Z,3.1
2018-12-11T14:01:12.525Z,3.1
2018-12-11T14:06:12.566Z,3.1
2018-12-11T14:11:12.436Z,3.1
2018-12-11T14:16:12.511Z,3.1
2018-12-11T14:21:12.368Z,3.1
2018-12-11T14:26:12.478Z,3.1
2018-12-11T14:31:12.503Z,3.1
2018-12-11T14:36:12.522Z,3.1
2018-12-11T14:41:12.604Z,3.1
2018-12-11T14:46:12.343Z,3.2
2018-12-11T14:51:12.557Z,3.2
2018-12-11T14:56:12.587Z,3.2
2018-12-11T15:01:12.517Z,3.2
2018-12-11T15:06:12.530Z,3.2
2018-12-11T15:11:12.322Z,3.1
2018-12-11T15:16:12.503Z,3.1
2018-12-11T15:21:12.543Z,3.1
2018-12-11T15:26:12.511Z,3.1
2018-12-11T15:31:13.314Z,3.1
2018-12-11T15:36:12.553Z,3.1
2018-12-11T15:41:12.566Z,3.1
2018-12-11T15:46:12.400Z,3.1
2018-12-11T15:51:12.552Z,3.1
2018-12-11T15:56:12.596Z,3.1
2018-12-11T16:01:12.633Z,3.1
2018-12-11T16:06:12.544Z,3.1
2018-12-11T16:11:12.597Z,3.1
2018-12-11T16:16:12.400Z,3.1
2018-12-11T16:21:12.404Z,3.1
2018-12-11T16:26:12.422Z,3.1
2018-12-11T16:31:12.420Z,3.1
2018-12-11T16:36:12.405Z,3.1
2018-12-11T16:41:12.444Z,3.1
2018-12-11T16:46:12.464Z,3.1
2018-12-11T16:51:12.445Z,3.1
2018-12-11T16:56:12.422Z,3.1
2018-12-11T17:01:12.874Z,3.1
2018-12-11T17:06:12.456Z,3.1
2018-12-11T17:11:12.436Z,3.1
2018-12-11T17:16:12.914Z,3.1
2018-12-11T17:21:12.426Z,3.1
2018-12-11T17:26:12.475Z,3
2018-12-11T17:31:13.161Z,3
2018-12-11T17:36:12.443Z,3
2018-12-11T17:41:12.441Z,3
2018-12-11T17:46:12.510Z,3
2018-12-11T17:51:12.469Z,3
2018-12-11T17:56:12.405Z,3
2018-12-11T18:01:12.454Z,3
2018-12-11T18:06:12.604Z,3
2018-12-11T18:11:12.442Z,3
2018-12-11T18:16:12.505Z,3
2018-12-11T18:21:12.467Z,3
2018-12-11T18:26:12.478Z,3
2018-12-11T18:31:12.472Z,3
2018-12-11T18:36:12.526Z,3
2018-12-11T18:41:12.657Z,3
2018-12-11T18:46:12.626Z,3
2018-12-11T18:51:12.509Z,2.9
2018-12-11T18:56:12.472Z,2.9
2018-12-11T19:01:12.467Z,2.9
2018-12-11T19:06:12.525Z,2.9
2018-12-11T19:11:12.547Z,2.8
2018-12-11T19:16:13.149Z,2.8
2018-12-11T19:21:12.551Z,2.8
2018-12-11T19:26:12.522Z,2.7
2018-12-11T19:31:12.540Z,2.7
2018-12-11T19:36:12.533Z,2.7
2018-12-11T19:41:12.567Z,2.7
2018-12-11T19:46:12.551Z,2.6
2018-12-11T19:51:12.553Z,2.6
2018-12-11T19:56:12.541Z,2.6
2018-12-11T20:01:12.658Z,2.6
2018-12-11T20:06:12.550Z,2.6
2018-12-11T20:11:12.563Z,2.6
2018-12-11T20:16:13.633Z,2.5
2018-12-11T20:21:12.556Z,2.4
2018-12-11T20:26:12.595Z,2.4
2018-12-11T20:31:12.575Z,2.3
2018-12-11T20:36:12.627Z,2.3
2018-12-11T20:41:12.573Z,2.2
2018-12-11T20:46:12.590Z,2.2
2018-12-11T20:51:12.613Z,2.2
2018-12-11T20:56:12.580Z,2.2
2018-12-11T21:01:12.631Z,2.2
2018-12-11T21:06:12.577Z,2.2
2018-12-11T21:11:15.472Z,2.2
2018-12-11T21:16:12.608Z,2.2
2018-12-11T21:21:12.544Z,2.2
2018-12-11T21:26:12.605Z,2.3
2018-12-11T21:31:12.662Z,2.3
2018-12-11T21:36:12.565Z,2.3
2018-12-11T21:41:12.571Z,2.3
2018-12-11T21:46:12.594Z,2.3
2018-12-11T21:51:12.606Z,2.3
2018-12-11T21:56:12.608Z,2.3
2018-12-11T22:01:12.584Z,2.3
2018-12-11T22:06:12.582Z,2.3
2018-12-11T22:11:12.588Z,2.3
2018-12-11T22:16:12.591Z,2.3
2018-12-11T22:21:12.599Z,2.3
2018-12-11T22:26:12.700Z,2.3
2018-12-11T22:31:12.555Z,2.3
2018-12-11T22:36:12.606Z,2.3
2018-12-11T22:41:12.619Z,2.4
2018-12-11T22:46:12.686Z,2.3
2018-12-11T22:51:12.708Z,2.3
2018-12-11T22:56:12.689Z,2.4
2018-12-11T23:01:12.627Z,2.4
2018-12-11T23:06:13.641Z,2.4
2018-12-11T23:11:12.724Z,2.4
2018-12-11T23:16:12.724Z,2.4
2018-12-11T23:21:12.729Z,2.3
2018-12-11T23:26:12.743Z,2.3
2018-12-11T23:31:12.727Z,2.3
2018-12-11T23:36:12.735Z,2.2
2018-12-11T23:41:12.738Z,2.2
2018-12-11T23:46:12.634Z,2.2
2018-12-11T23:51:12.623Z,2.2
2018-12-11T23:56:12.767Z,2.2
